Trion, Georgia
Current Conditions -  °F | °C
As of 9:53 PM on Sunday 21 Dec 2014 (Local Time) from KRMG Reporting Station
Overcast Overcast  
Wind Chill: 49°   Ceiling: 2000
Heat Index: 49°   Visibility: 10mi
Dew Point: 44°   Wind: 3mph
Humidity: 83%   Direction: 90°E
Pressure: 30.09"   Gusts: NA
Location:  34.54°N, 85.31°W
Report Text: KRMG 220253Z AUTO 09003KT 10SM OVC020 09/07 A3009 RMK AO2 SLP186 T00940067 58001
Loading
Personal Weather Stations






























Interactive Weather Map New forecast layout! Learn more

10-Day Weather Forecast

Advertisements
Track Severe Weather on mobile